Grates Cove, Canada
Current Conditions -  °F | °C
As of 2:00 AM on Tuesday 27 Jan 2015 (Local Time) from CYYT Reporting Station
Broken Clouds Broken Clouds  
Wind Chill:   Ceiling: 2500
Heat Index: 19°   Visibility: 15mi
Dew Point: 12°   Wind: 12mph
Humidity: 74%   Direction: 310°NW
Pressure: 30.33"   Gusts: NA
Location:  48.17°N, 52.93°W
Report Text: CYYT 270500Z 31010KT 15SM BKN025 M07/M11 A3033 RMK SC6 PRESRR SLP282
Loading
Personal Weather Stations






























Interactive Weather Map New forecast layout! Learn more

10-Day Weather Forecast

Advertisements
Track Severe Weather on mobile